Time;durP1;ratioP1;P1;durP2;ratioP2;P2;SDS_P1;SDS_P2;PMS_P1;PMS_P2;Temp;Humidity;BMP_temperature;BMP_pressure;BME280_temperature;BME280_humidity;BME280_pressure;Samples;Min_cycle;Max_cycle;Signal;HPM_P1;HPM_P2
2023/06/02 00:00:05;;;;;;;11.03;4.13;;;22.30;41.90;;;;;;4996470;28;20521;-82
2023/06/02 00:02:33;;;;;;;9.70;5.23;;;22.30;41.90;;;;;;4996038;28;20477;-82
2023/06/02 00:05:02;;;;;;;7.10;4.00;;;22.30;41.90;;;;;;4997080;28;20460;-82
2023/06/02 00:07:30;;;;;;;9.67;4.50;;;22.20;41.80;;;;;;4996700;28;20541;-83
2023/06/02 00:10:00;;;;;;;9.33;4.70;;;22.20;41.90;;;;;;4996077;28;20520;-82
2023/06/02 00:12:28;;;;;;;8.50;3.90;;;22.20;41.80;;;;;;4995871;28;20559;-82
2023/06/02 00:14:56;;;;;;;8.70;4.37;;;22.20;41.80;;;;;;4994889;28;20465;-81
2023/06/02 00:17:24;;;;;;;9.77;4.07;;;22.20;41.80;;;;;;4993516;28;20443;-80
2023/06/02 00:19:56;;;;;;;6.43;3.90;;;22.20;41.80;;;;;;4994717;28;20449;-82
2023/06/02 00:22:29;;;;;;;10.70;4.60;;;22.10;41.80;;;;;;4989864;28;20477;-82
2023/06/02 00:24:59;;;;;;;9.73;4.73;;;22.10;41.70;;;;;;4988214;28;20703;-81
2023/06/02 00:27:27;;;;;;;8.87;4.77;;;22.10;41.80;;;;;;4996532;28;20488;-82
2023/06/02 00:29:56;;;;;;;6.63;4.10;;;22.10;41.70;;;;;;4996523;28;20597;-83
2023/06/02 00:32:24;;;;;;;7.83;4.30;;;22.10;41.60;;;;;;4988687;28;20450;-82
2023/06/02 00:34:52;;;;;;;7.63;4.13;;;22.10;41.80;;;;;;4995185;28;20481;-81
2023/06/02 00:37:20;;;;;;;9.23;4.13;;;22.10;41.70;;;;;;4993760;28;20448;-82
2023/06/02 00:39:48;;;;;;;6.03;4.13;;;22.10;41.70;;;;;;4995445;28;20472;-83
2023/06/02 00:42:18;;;;;;;7.17;3.83;;;22.10;41.70;;;;;;4993369;28;20478;-83
2023/06/02 00:44:46;;;;;;;5.37;4.27;;;22.00;41.60;;;;;;4994849;28;20527;-81
2023/06/02 00:47:14;;;;;;;6.93;4.43;;;22.00;41.60;;;;;;4995868;28;20446;-82
2023/06/02 00:49:42;;;;;;;6.90;4.07;;;22.00;41.60;;;;;;4994354;28;20446;-81
2023/06/02 00:52:10;;;;;;;8.27;4.27;;;22.00;41.60;;;;;;4990066;28;20445;-81
2023/06/02 00:54:39;;;;;;;7.90;4.73;;;22.00;42.00;;;;;;4989652;28;20438;-80
2023/06/02 00:57:09;;;;;;;7.83;4.53;;;22.00;41.60;;;;;;4995996;28;20501;-82
2023/06/02 00:59:38;;;;;;;6.97;4.30;;;21.90;41.60;;;;;;4983276;28;20468;-82
2023/06/02 01:02:07;;;;;;;14.60;5.13;;;21.90;41.50;;;;;;4995455;28;20520;-82
2023/06/02 01:04:36;;;;;;;8.00;4.17;;;21.90;41.60;;;;;;4987475;28;20473;-82
2023/06/02 01:07:06;;;;;;;7.10;4.47;;;21.90;41.40;;;;;;4995490;28;20939;-82
2023/06/02 01:09:34;;;;;;;8.47;4.90;;;21.90;41.60;;;;;;4990275;28;20477;-82
2023/06/02 01:12:03;;;;;;;12.03;5.33;;;21.90;41.40;;;;;;4992728;28;20496;-82
2023/06/02 01:14:31;;;;;;;7.60;4.23;;;21.90;41.50;;;;;;4991615;28;20876;-81
2023/06/02 01:17:01;;;;;;;5.80;4.00;;;21.90;41.50;;;;;;4994129;28;20496;-82
2023/06/02 01:19:31;;;;;;;10.47;4.77;;;21.90;41.40;;;;;;4994877;28;20433;-82
2023/06/02 01:22:03;;;;;;;7.63;4.67;;;21.90;41.50;;;;;;4995147;28;20471;-82
2023/06/02 01:24:39;;;;;;;6.70;4.50;;;21.90;41.50;;;;;;4992928;28;20457;-81
2023/06/02 01:27:07;;;;;;;11.13;4.33;;;21.90;41.60;;;;;;4991778;28;20476;-82
2023/06/02 01:29:36;;;;;;;9.53;4.37;;;21.80;41.40;;;;;;4989142;28;20942;-82
2023/06/02 01:32:07;;;;;;;9.57;6.80;;;21.80;41.50;;;;;;4989211;28;20413;-82
2023/06/02 01:34:38;;;;;;;18.40;12.43;;;21.80;41.50;;;;;;4992072;28;20488;-82
2023/06/02 01:37:06;;;;;;;22.73;12.47;;;21.80;41.40;;;;;;5000251;28;20472;-81
2023/06/02 01:39:34;;;;;;;20.93;12.50;;;21.80;41.50;;;;;;4991695;28;20448;-80
2023/06/02 01:42:05;;;;;;;24.40;13.70;;;21.80;41.50;;;;;;4989871;28;20473;-80
2023/06/02 01:44:33;;;;;;;23.30;15.03;;;21.80;41.60;;;;;;4993969;28;20458;-81
2023/06/02 01:47:02;;;;;;;25.77;15.73;;;21.70;41.50;;;;;;4994249;28;20449;-81
2023/06/02 01:49:30;;;;;;;27.80;15.97;;;21.70;41.40;;;;;;4995011;28;20449;-82
2023/06/02 01:51:58;;;;;;;25.73;17.37;;;21.80;41.50;;;;;;4994780;28;20441;-81
2023/06/02 01:54:26;;;;;;;26.30;17.00;;;21.70;41.30;;;;;;4994554;28;20433;-81
2023/06/02 01:56:54;;;;;;;30.87;17.00;;;21.70;41.30;;;;;;4994724;28;20449;-80
2023/06/02 01:59:25;;;;;;;24.20;17.40;;;21.70;41.40;;;;;;4993651;28;20536;-80
2023/06/02 02:01:53;;;;;;;26.60;16.60;;;21.70;41.30;;;;;;4993573;28;20907;-80
2023/06/02 02:04:22;;;;;;;27.17;17.97;;;21.70;41.30;;;;;;4993904;28;20487;-80
2023/06/02 02:06:50;;;;;;;27.20;18.83;;;21.70;41.40;;;;;;4995923;28;20492;-80
2023/06/02 02:09:18;;;;;;;36.33;18.13;;;21.70;41.40;;;;;;4992132;28;20488;-80
2023/06/02 02:11:46;;;;;;;26.77;17.90;;;21.70;41.40;;;;;;4991932;28;20497;-79
2023/06/02 02:14:14;;;;;;;25.67;17.70;;;21.60;41.40;;;;;;4995748;28;20449;-80
2023/06/02 02:16:45;;;;;;;32.53;18.97;;;21.70;41.30;;;;;;4988857;28;20465;-81
2023/06/02 02:19:13;;;;;;;27.33;17.50;;;21.70;41.40;;;;;;4994605;28;20483;-80
2023/06/02 02:21:41;;;;;;;25.33;16.50;;;21.60;41.20;;;;;;4993491;28;20473;-82
2023/06/02 02:24:09;;;;;;;25.97;17.47;;;21.60;41.20;;;;;;4995139;28;20437;-82
2023/06/02 02:26:37;;;;;;;26.97;17.20;;;21.60;41.30;;;;;;4993879;28;20451;-80
2023/06/02 02:29:06;;;;;;;24.87;16.60;;;21.60;41.30;;;;;;4993453;28;20454;-82
2023/06/02 02:31:34;;;;;;;25.63;16.67;;;21.60;41.30;;;;;;4994553;28;20457;-80
2023/06/02 02:34:03;;;;;;;22.63;15.77;;;21.60;41.30;;;;;;4993128;28;20453;-82
2023/06/02 02:36:33;;;;;;;25.53;17.03;;;21.60;41.30;;;;;;4990955;28;20473;-82
2023/06/02 02:39:02;;;;;;;25.53;16.30;;;21.60;41.30;;;;;;4986146;28;20498;-82
2023/06/02 02:41:30;;;;;;;25.60;16.90;;;21.50;41.20;;;;;;4978056;28;20434;-82
2023/06/02 02:43:58;;;;;;;24.13;16.43;;;21.50;41.20;;;;;;4980970;28;20540;-82
2023/06/02 02:46:27;;;;;;;24.53;17.07;;;21.50;41.20;;;;;;4986313;28;20502;-82
2023/06/02 02:48:55;;;;;;;24.60;15.73;;;21.50;41.30;;;;;;4994406;28;20446;-82
2023/06/02 02:51:24;;;;;;;23.33;15.07;;;21.50;41.20;;;;;;4988654;28;20504;-81
2023/06/02 02:53:53;;;;;;;25.07;15.07;;;21.50;41.30;;;;;;4993988;28;20444;-82
2023/06/02 02:56:22;;;;;;;20.47;14.47;;;21.60;41.30;;;;;;4994217;28;20560;-82
2023/06/02 02:58:50;;;;;;;24.63;15.30;;;21.60;41.30;;;;;;4989372;28;20461;-82
2023/06/02 03:01:18;;;;;;;23.53;14.80;;;21.50;41.20;;;;;;4983659;28;20448;-81
2023/06/02 03:03:46;;;;;;;24.70;15.13;;;21.50;41.20;;;;;;4992582;28;20484;-82
2023/06/02 03:06:18;;;;;;;23.40;14.90;;;21.50;41.20;;;;;;4993826;28;20465;-82
2023/06/02 03:08:47;;;;;;;21.67;14.13;;;21.60;41.30;;;;;;4986695;28;20449;-83
2023/06/02 03:11:16;;;;;;;23.47;13.90;;;21.50;41.00;;;;;;4994186;28;20457;-82
2023/06/02 03:13:44;;;;;;;23.07;13.63;;;21.50;41.10;;;;;;4984193;28;20521;-82
2023/06/02 03:16:11;;;;;;;21.67;14.47;;;21.50;41.10;;;;;;4992196;28;20516;-82
2023/06/02 03:18:39;;;;;;;19.87;13.57;;;21.50;41.20;;;;;;4993943;28;20487;-81
2023/06/02 03:21:07;;;;;;;19.40;13.77;;;21.50;41.20;;;;;;4991351;28;20480;-82
2023/06/02 03:23:37;;;;;;;22.70;14.40;;;21.50;41.30;;;;;;4992443;28;20568;-82
2023/06/02 03:26:10;;;;;;;20.27;13.93;;;21.50;41.10;;;;;;4993105;28;20466;-79
2023/06/02 03:28:39;;;;;;;18.50;12.63;;;21.50;41.30;;;;;;4986877;28;20454;-80
2023/06/02 03:31:07;;;;;;;16.83;12.20;;;21.50;41.10;;;;;;4992757;28;20508;-82
2023/06/02 03:33:35;;;;;;;22.20;12.93;;;21.50;41.70;;;;;;4993059;28;20441;-81
2023/06/02 03:36:03;;;;;;;22.20;13.30;;;21.50;41.10;;;;;;4992369;28;20496;-82
2023/06/02 03:38:32;;;;;;;21.70;13.37;;;21.50;41.00;;;;;;4991997;28;20504;-82
2023/06/02 03:40:59;;;;;;;22.00;13.60;;;21.50;41.20;;;;;;4989243;28;20545;-81
2023/06/02 03:43:29;;;;;;;20.90;12.53;;;21.50;41.30;;;;;;4981633;28;20513;-80
2023/06/02 03:45:57;;;;;;;17.83;12.37;;;21.50;41.20;;;;;;4993237;28;20472;-81
2023/06/02 03:48:25;;;;;;;20.07;12.60;;;21.50;41.10;;;;;;4990786;28;20480;-81
2023/06/02 03:50:53;;;;;;;19.80;12.33;;;21.50;41.20;;;;;;4985908;28;20896;-81
2023/06/02 03:53:22;;;;;;;15.77;11.40;;;21.50;41.20;;;;;;4992935;28;20536;-80
2023/06/02 03:55:50;;;;;;;19.27;12.07;;;21.50;41.10;;;;;;4993650;28;20555;-82
2023/06/02 03:58:19;;;;;;;18.30;12.00;;;21.50;41.30;;;;;;4996419;28;20444;-82
2023/06/02 04:00:49;;;;;;;18.67;11.63;;;21.50;41.10;;;;;;4988968;28;20424;-81
2023/06/02 04:03:17;;;;;;;17.97;11.93;;;21.50;41.00;;;;;;4996893;28;20500;-82
2023/06/02 04:05:47;;;;;;;19.13;11.90;;;21.50;41.00;;;;;;4996323;28;20525;-82
2023/06/02 04:08:16;;;;;;;17.90;11.60;;;21.50;41.00;;;;;;4996846;28;20544;-81
2023/06/02 04:10:44;;;;;;;19.77;11.30;;;21.60;41.10;;;;;;4994681;28;20491;-81
2023/06/02 04:13:12;;;;;;;19.97;11.87;;;21.50;41.00;;;;;;4992044;28;20954;-81
2023/06/02 04:15:40;;;;;;;18.10;11.50;;;21.60;41.10;;;;;;4996291;28;20465;-81
2023/06/02 04:18:10;;;;;;;20.60;11.30;;;21.60;41.00;;;;;;4989523;28;20484;-81
2023/06/02 04:20:38;;;;;;;18.60;11.00;;;21.60;40.90;;;;;;4990388;28;20540;-81
2023/06/02 04:23:06;;;;;;;16.87;10.33;;;21.60;41.00;;;;;;4995774;28;20472;-81
2023/06/02 04:25:34;;;;;;;15.80;10.60;;;21.60;40.90;;;;;;4995995;28;20476;-82
2023/06/02 04:28:03;;;;;;;16.17;9.93;;;21.60;40.90;;;;;;4996934;28;20540;-82
2023/06/02 04:30:31;;;;;;;16.80;10.43;;;21.60;40.90;;;;;;4992779;28;20492;-82
2023/06/02 04:33:00;;;;;;;13.50;9.27;;;21.70;41.00;;;;;;4988596;28;20446;-82
2023/06/02 04:35:30;;;;;;;13.93;10.57;;;21.70;40.90;;;;;;4996273;28;20469;-81
2023/06/02 04:37:59;;;;;;;15.83;10.47;;;21.70;41.00;;;;;;4997203;28;20471;-82
2023/06/02 04:40:27;;;;;;;13.83;9.77;;;21.70;40.90;;;;;;4991399;28;20504;-81
2023/06/02 04:42:55;;;;;;;14.67;9.80;;;21.70;41.50;;;;;;4995980;28;20449;-81
2023/06/02 04:45:23;;;;;;;16.50;9.63;;;21.80;41.00;;;;;;4998717;28;20492;-82
2023/06/02 04:47:52;;;;;;;15.00;10.17;;;21.80;41.00;;;;;;5005545;28;20456;-79
2023/06/02 04:50:20;;;;;;;14.27;9.30;;;21.80;40.90;;;;;;4995938;28;20453;-81
2023/06/02 04:52:50;;;;;;;16.30;10.17;;;21.80;40.70;;;;;;4994269;28;20469;-81
2023/06/02 04:55:18;;;;;;;14.87;9.13;;;21.90;40.90;;;;;;4993137;28;20497;-81
2023/06/02 04:57:46;;;;;;;12.47;8.90;;;21.90;40.80;;;;;;4997792;28;20437;-83
2023/06/02 05:00:15;;;;;;;15.00;8.93;;;22.00;40.90;;;;;;4996304;28;20445;-82
2023/06/02 05:02:43;;;;;;;14.97;9.60;;;22.00;40.90;;;;;;4999867;28;20445;-79
2023/06/02 05:05:11;;;;;;;14.47;8.60;;;22.00;41.00;;;;;;4994088;28;20519;-82
2023/06/02 05:07:39;;;;;;;12.70;8.30;;;22.00;40.90;;;;;;4995299;28;20985;-82
2023/06/02 05:10:09;;;;;;;13.73;8.70;;;22.00;40.80;;;;;;4991695;28;20457;-82
2023/06/02 05:12:41;;;;;;;11.53;8.30;;;22.00;40.90;;;;;;4998405;28;20496;-80
2023/06/02 05:15:10;;;;;;;11.73;8.63;;;22.00;41.00;;;;;;4996931;28;20461;-81
2023/06/02 05:17:38;;;;;;;12.47;8.07;;;22.00;40.90;;;;;;4995237;28;20472;-80
2023/06/02 05:20:07;;;;;;;12.33;7.93;;;22.10;40.90;;;;;;4987949;28;20450;-80
2023/06/02 05:22:35;;;;;;;13.87;8.83;;;22.10;40.70;;;;;;4995873;28;20448;-82
2023/06/02 05:25:04;;;;;;;13.83;8.47;;;22.10;40.70;;;;;;4996500;28;20568;-82
2023/06/02 05:27:35;;;;;;;12.70;7.90;;;22.10;40.90;;;;;;4997398;28;20548;-81
2023/06/02 05:30:03;;;;;;;11.50;7.33;;;22.10;40.80;;;;;;4995187;28;20444;-80
2023/06/02 05:32:32;;;;;;;14.70;8.03;;;22.10;40.90;;;;;;4994325;28;20445;-82
2023/06/02 05:35:00;;;;;;;12.43;7.63;;;22.20;40.90;;;;;;4998647;28;20476;-82
2023/06/02 05:37:28;;;;;;;12.07;8.30;;;22.20;40.90;;;;;;4998273;28;20446;-82
2023/06/02 05:39:56;;;;;;;11.90;7.03;;;22.20;40.90;;;;;;4991403;28;20441;-79
2023/06/02 05:42:25;;;;;;;12.70;7.57;;;22.20;40.90;;;;;;4997254;28;20476;-82
2023/06/02 05:44:55;;;;;;;8.63;7.00;;;22.20;40.80;;;;;;4990743;28;20448;-83
2023/06/02 05:47:23;;;;;;;10.50;7.00;;;22.20;41.00;;;;;;4993430;28;20449;-82
2023/06/02 05:49:51;;;;;;;12.23;7.60;;;22.30;41.00;;;;;;4992081;28;20484;-82
2023/06/02 05:52:19;;;;;;;9.00;6.60;;;22.30;41.10;;;;;;4997688;28;20439;-80
2023/06/02 05:54:47;;;;;;;9.97;6.80;;;22.40;41.10;;;;;;4993478;28;20505;-83
2023/06/02 05:57:17;;;;;;;12.33;7.53;;;22.40;40.90;;;;;;4998654;28;20792;-81
2023/06/02 05:59:50;;;;;;;10.93;6.80;;;22.40;41.00;;;;;;4998761;28;20453;-81
2023/06/02 06:02:20;;;;;;;9.97;6.40;;;22.40;41.10;;;;;;4989303;28;20434;-80
2023/06/02 06:04:48;;;;;;;8.33;6.10;;;22.40;41.10;;;;;;4997281;28;20460;-81
2023/06/02 06:07:16;;;;;;;11.17;7.10;;;22.40;41.10;;;;;;4997870;28;20445;-81
2023/06/02 06:09:47;;;;;;;10.87;6.80;;;22.40;41.00;;;;;;4994621;28;20488;-80
2023/06/02 06:12:15;;;;;;;10.63;6.73;;;22.40;41.20;;;;;;4992541;28;20470;-82
2023/06/02 06:14:44;;;;;;;9.90;6.70;;;22.40;41.00;;;;;;4997872;28;20537;-82
2023/06/02 06:17:12;;;;;;;12.80;6.80;;;22.50;41.10;;;;;;4996025;28;20449;-81
2023/06/02 06:19:41;;;;;;;10.63;6.10;;;22.60;41.20;;;;;;4995345;28;20480;-80
2023/06/02 06:22:11;;;;;;;11.40;7.10;;;22.60;41.10;;;;;;4992192;28;20481;-82
2023/06/02 06:24:39;;;;;;;9.23;6.80;;;22.60;41.00;;;;;;4997489;28;20986;-81
2023/06/02 06:27:07;;;;;;;12.07;6.90;;;22.60;40.90;;;;;;4996476;28;20480;-80
2023/06/02 06:29:37;;;;;;;9.50;6.53;;;22.60;41.10;;;;;;4996768;28;20449;-81
2023/06/02 06:32:07;;;;;;;9.00;5.93;;;22.60;41.10;;;;;;4996366;28;20480;-80
2023/06/02 06:34:35;;;;;;;9.90;5.90;;;22.70;41.10;;;;;;4998077;28;20457;-83
2023/06/02 06:37:06;;;;;;;9.97;5.97;;;22.70;41.20;;;;;;4998753;28;20452;-82
2023/06/02 06:39:34;;;;;;;8.37;4.90;;;22.70;41.00;;;;;;4990083;28;20434;-80
2023/06/02 06:42:02;;;;;;;8.57;5.67;;;22.80;41.10;;;;;;4992270;28;20442;-79
2023/06/02 06:44:30;;;;;;;8.23;5.40;;;22.80;41.10;;;;;;4993019;28;20458;-79
2023/06/02 06:46:59;;;;;;;10.50;5.80;;;22.80;41.10;;;;;;4988170;28;20450;-82
2023/06/02 06:49:27;;;;;;;12.00;5.83;;;22.90;41.00;;;;;;4995486;28;20420;-81
2023/06/02 06:51:58;;;;;;;7.93;5.73;;;23.00;41.00;;;;;;4984866;28;20442;-81
2023/06/02 06:54:27;;;;;;;8.43;5.43;;;23.00;41.00;;;;;;4994385;28;20441;-81
2023/06/02 06:56:55;;;;;;;11.90;6.00;;;23.10;40.90;;;;;;4992186;28;20471;-80
2023/06/02 06:59:24;;;;;;;9.07;5.77;;;23.20;40.80;;;;;;4996997;28;20449;-80
2023/06/02 07:01:52;;;;;;;8.73;5.23;;;23.30;40.80;;;;;;4994808;28;20464;-82
2023/06/02 07:04:20;;;;;;;8.03;5.00;;;23.30;40.90;;;;;;4997978;28;20472;-82
2023/06/02 07:06:48;;;;;;;8.53;4.63;;;23.40;40.90;;;;;;4997436;28;20424;-81
2023/06/02 07:09:16;;;;;;;8.00;5.23;;;23.40;40.90;;;;;;4997484;28;20420;-81
2023/06/02 07:11:46;;;;;;;11.53;5.80;;;23.40;40.80;;;;;;4993993;28;20458;-82
2023/06/02 07:14:14;;;;;;;9.03;5.10;;;23.50;41.00;;;;;;4990596;28;20426;-80
2023/06/02 07:16:49;;;;;;;10.93;4.93;;;23.60;41.00;;;;;;5000477;28;20432;-81
2023/06/02 07:19:17;;;;;;;7.80;5.00;;;23.70;41.10;;;;;;4986315;28;20477;-81
2023/06/02 07:21:46;;;;;;;10.83;5.13;;;23.70;40.90;;;;;;4994641;28;20457;-80
2023/06/02 07:24:14;;;;;;;7.70;5.10;;;23.80;40.90;;;;;;4992545;28;20429;-79
2023/06/02 07:26:43;;;;;;;7.50;4.03;;;23.80;41.10;;;;;;4996601;28;20497;-81
2023/06/02 07:29:12;;;;;;;13.47;5.37;;;23.90;41.20;;;;;;4991723;28;20428;-81
2023/06/02 07:31:43;;;;;;;11.73;5.23;;;23.90;41.20;;;;;;4998539;28;20412;-82
2023/06/02 07:34:11;;;;;;;6.50;4.30;;;23.90;41.20;;;;;;5000487;28;20504;-78
2023/06/02 07:36:41;;;;;;;8.60;4.17;;;23.80;41.20;;;;;;5000923;28;20435;-80
2023/06/02 07:39:12;;;;;;;6.70;4.17;;;23.90;41.30;;;;;;5002272;28;20412;-82
2023/06/02 07:41:40;;;;;;;7.03;4.50;;;23.90;41.20;;;;;;4998587;28;20436;-82
2023/06/02 07:44:08;;;;;;;6.00;4.00;;;23.90;41.20;;;;;;5001809;28;20447;-82
2023/06/02 07:46:38;;;;;;;8.57;4.50;;;24.00;41.70;;;;;;4993478;28;20478;-82
2023/06/02 07:49:08;;;;;;;9.13;4.10;;;24.10;41.50;;;;;;4999960;28;20435;-81
2023/06/02 07:51:36;;;;;;;7.70;3.80;;;24.10;41.60;;;;;;4999199;28;20476;-80
2023/06/02 07:54:05;;;;;;;8.20;4.27;;;24.10;41.60;;;;;;5001087;28;20453;-81
2023/06/02 07:56:33;;;;;;;9.57;4.63;;;24.20;41.60;;;;;;4999348;28;20447;-81
2023/06/02 07:59:01;;;;;;;6.90;4.30;;;24.30;41.80;;;;;;5001124;28;20449;-81
2023/06/02 08:01:29;;;;;;;9.20;4.37;;;24.40;41.90;;;;;;4999630;28;20491;-80
2023/06/02 08:04:00;;;;;;;5.47;3.83;;;24.50;41.70;;;;;;4990989;28;20445;-78
2023/06/02 08:06:28;;;;;;;11.50;4.07;;;24.70;41.60;;;;;;5001576;28;20507;-80
2023/06/02 08:08:56;;;;;;;8.63;4.30;;;24.80;41.40;;;;;;4997899;28;20922;-81
2023/06/02 08:11:26;;;;;;;6.00;3.70;;;25.00;41.50;;;;;;4995647;28;20435;-80
2023/06/02 08:13:54;;;;;;;8.10;3.67;;;25.10;41.50;;;;;;4998299;28;20424;-80
2023/06/02 08:16:24;;;;;;;6.80;4.23;;;25.20;41.30;;;;;;4995023;28;20441;-81
2023/06/02 08:19:00;;;;;;;5.33;3.80;;;25.40;41.20;;;;;;4998629;28;20429;-80
2023/06/02 08:21:28;;;;;;;6.63;3.63;;;25.60;41.20;;;;;;4989187;28;20514;-79
2023/06/02 08:23:56;;;;;;;7.33;3.70;;;25.80;41.10;;;;;;4998535;28;20420;-80
2023/06/02 08:26:26;;;;;;;5.90;3.80;;;25.90;41.00;;;;;;4994404;28;20536;-80
2023/06/02 08:28:55;;;;;;;6.37;3.40;;;26.10;40.80;;;;;;5000162;28;20490;-81
2023/06/02 08:31:23;;;;;;;5.30;3.30;;;26.30;40.80;;;;;;4995605;28;20467;-80
2023/06/02 08:33:52;;;;;;;6.87;3.50;;;26.50;40.50;;;;;;4997482;28;20434;-80
2023/06/02 08:36:23;;;;;;;7.70;3.73;;;26.70;40.40;;;;;;4990102;28;20445;-82
2023/06/02 08:38:52;;;;;;;7.20;3.47;;;26.80;40.20;;;;;;4986027;28;20438;-79
2023/06/02 08:41:20;;;;;;;8.13;3.80;;;27.00;40.20;;;;;;4989267;28;20862;-80
2023/06/02 08:43:49;;;;;;;6.77;3.13;;;27.20;40.00;;;;;;4990929;28;21010;-80
2023/06/02 08:46:16;;;;;;;7.00;3.37;;;27.30;40.00;;;;;;4998053;28;20550;-79
2023/06/02 08:48:46;;;;;;;7.07;3.23;;;27.50;39.90;;;;;;4988995;28;20862;-81
2023/06/02 08:51:17;;;;;;;5.70;3.40;;;27.70;39.80;;;;;;4992180;28;20544;-80
2023/06/02 08:53:46;;;;;;;5.30;3.07;;;27.80;39.60;;;;;;4996718;28;20463;-80
2023/06/02 08:56:15;;;;;;;5.67;3.07;;;27.90;39.40;;;;;;4998174;28;20467;-81
2023/06/02 08:58:44;;;;;;;3.57;2.53;;;27.90;39.10;;;;;;4997153;28;20428;-77
2023/06/02 09:01:13;;;;;;;7.63;3.10;;;28.00;39.10;;;;;;4995831;28;20500;-80
2023/06/02 09:03:41;;;;;;;4.80;2.60;;;28.10;39.00;;;;;;4995673;28;20428;-80
2023/06/02 09:06:21;;;;;;;6.67;3.00;;;28.30;38.80;;;;;;4998865;28;20491;-81
2023/06/02 09:08:56;;;;;;;7.53;2.93;;;28.40;38.40;;;;;;4992514;28;20506;-80
2023/06/02 09:11:25;;;;;;;8.10;2.60;;;28.40;38.30;;;;;;4999595;28;20449;-79
2023/06/02 09:13:53;;;;;;;6.83;2.70;;;28.50;38.40;;;;;;4997444;28;20481;-80
2023/06/02 09:16:22;;;;;;;5.30;3.03;;;28.70;38.20;;;;;;4998153;28;20531;-79
2023/06/02 09:18:56;;;;;;;6.03;2.67;;;29.00;38.00;;;;;;4992349;28;20461;-79
2023/06/02 09:21:27;;;;;;;4.00;2.20;;;29.20;37.70;;;;;;4994054;28;21025;-80
2023/06/02 09:23:57;;;;;;;3.23;2.20;;;29.30;37.50;;;;;;4999941;28;20453;-81
2023/06/02 09:26:47;;;;;;;2.70;2.00;;;29.50;37.70;;;;;;4991826;28;20512;-80
2023/06/02 09:29:15;;;;;;;2.50;2.20;;;29.70;37.50;;;;;;4997851;28;20465;-79
2023/06/02 09:31:45;;;;;;;3.13;2.20;;;29.80;37.30;;;;;;4995275;28;20453;-79
2023/06/02 09:34:13;;;;;;;4.00;2.10;;;30.00;37.20;;;;;;4993531;28;20453;-80
2023/06/02 09:36:42;;;;;;;2.27;2.07;;;30.20;37.10;;;;;;4995215;28;20492;-81
2023/06/02 09:39:11;;;;;;;3.50;2.13;;;30.40;37.00;;;;;;4995492;28;20456;-80
2023/06/02 09:41:40;;;;;;;4.93;2.30;;;30.60;36.60;;;;;;4986847;28;20491;-81
2023/06/02 09:44:14;;;;;;;3.87;2.03;;;30.60;36.40;;;;;;4987331;28;20445;-80
2023/06/02 09:46:45;;;;;;;3.77;2.07;;;30.80;36.40;;;;;;4987945;28;20477;-80
2023/06/02 09:49:13;;;;;;;2.80;1.97;;;31.00;36.10;;;;;;4992764;28;20449;-83
2023/06/02 09:51:41;;;;;;;3.20;2.13;;;31.00;36.00;;;;;;5016279;28;20453;-84
2023/06/02 09:54:10;;;;;;;3.13;1.83;;;31.20;36.10;;;;;;5009751;28;20433;-80
2023/06/02 09:56:38;;;;;;;1.97;1.73;;;31.50;35.90;;;;;;5013096;28;20467;-82
2023/06/02 09:59:07;;;;;;;2.60;2.13;;;31.50;35.50;;;;;;5012784;28;20453;-83
2023/06/02 10:01:35;;;;;;;9.20;1.83;;;31.40;35.30;;;;;;5012997;28;20457;-84
2023/06/02 10:04:05;;;;;;;3.33;1.77;;;31.30;35.40;;;;;;5017135;28;20408;-82
2023/06/02 10:06:38;;;;;;;4.00;2.10;;;31.20;35.30;;;;;;5017073;28;20518;-83
2023/06/02 10:09:16;;;;;;;3.23;2.00;;;31.30;35.70;;;;;;5013596;28;20473;-81
2023/06/02 10:11:48;;;;;;;3.50;2.07;;;31.50;35.90;;;;;;5008888;28;20545;-83
2023/06/02 10:14:41;;;;;;;4.80;1.93;;;31.70;35.80;;;;;;4988720;28;20521;-82
2023/06/02 10:17:14;;;;;;;3.13;1.90;;;31.80;35.30;;;;;;4991318;28;20452;-82
2023/06/02 10:20:00;;;;;;;3.27;1.90;;;31.80;35.00;;;;;;4999998;28;20977;-83
2023/06/02 10:22:38;;;;;;;2.47;1.90;;;31.70;35.10;;;;;;4993328;28;20453;-82
2023/06/02 10:25:18;;;;;;;3.00;2.00;;;31.70;35.20;;;;;;4989866;28;20492;-82
2023/06/02 10:27:48;;;;;;;3.70;1.97;;;31.80;35.30;;;;;;5003216;28;20453;-82
2023/06/02 10:30:19;;;;;;;1.83;1.73;;;32.10;35.50;;;;;;5003095;28;20449;-82
2023/06/02 10:32:48;;;;;;;3.93;2.00;;;32.40;35.30;;;;;;5002774;28;20445;-82
2023/06/02 10:35:17;;;;;;;2.50;1.80;;;32.50;34.80;;;;;;4995690;28;20476;-82
2023/06/02 10:37:45;;;;;;;2.40;2.13;;;32.50;34.50;;;;;;5002834;28;20456;-82
2023/06/02 10:40:15;;;;;;;3.60;2.10;;;32.40;34.50;;;;;;4997825;28;20477;-83
2023/06/02 10:43:13;;;;;;;2.50;1.80;;;32.50;34.70;;;;;;4995500;28;20449;-83
2023/06/02 10:45:42;;;;;;;2.20;1.70;;;32.90;34.90;;;;;;4919830;29;20524;-83
2023/06/02 10:48:39;;;;;;;1.70;1.60;;;33.00;34.40;;;;;;4976412;28;20491;-84
2023/06/02 10:51:07;;;;;;;1.93;1.83;;;33.10;34.20;;;;;;4996165;28;20481;-83
2023/06/02 10:53:52;;;;;;;1.77;1.60;;;33.30;34.20;;;;;;4991738;28;20530;-82
2023/06/02 10:56:42;;;;;;;2.53;1.50;;;33.30;34.10;;;;;;4992819;28;21060;-83
2023/06/02 10:59:11;;;;;;;2.30;1.80;;;33.30;33.80;;;;;;4990001;28;20456;-83
2023/06/02 11:01:46;;;;;;;4.27;2.23;;;33.10;33.50;;;;;;5001791;28;20966;-82
2023/06/02 11:04:35;;;;;;;4.77;2.13;;;33.00;33.70;;;;;;5001365;28;20464;-81
2023/06/02 11:07:15;;;;;;;2.70;1.83;;;33.10;34.30;;;;;;4997228;28;20556;-81
2023/06/02 11:09:44;;;;;;;2.20;2.00;;;33.30;34.30;;;;;;5001328;28;20453;-82
2023/06/02 11:12:13;;;;;;;3.40;1.80;;;33.70;34.20;;;;;;4988985;28;20445;-82
2023/06/02 11:15:18;;;;;;;2.20;1.80;;;34.00;33.60;;;;;;5003676;28;20455;-82
2023/06/02 11:17:48;;;;;;;1.90;1.67;;;34.00;32.60;;;;;;5002181;28;20449;-82
2023/06/02 11:20:17;;;;;;;1.50;1.40;;;33.90;32.70;;;;;;5004613;28;20533;-83
2023/06/02 11:22:46;;;;;;;2.20;1.77;;;33.80;32.60;;;;;;4995643;28;20449;-82
2023/06/02 11:25:15;;;;;;;1.87;1.73;;;33.50;32.70;;;;;;5003885;28;20469;-81
2023/06/02 11:27:46;;;;;;;3.07;1.93;;;33.30;33.10;;;;;;4992473;28;20481;-81
2023/06/02 11:30:15;;;;;;;2.73;1.90;;;33.00;33.40;;;;;;4996429;28;20441;-81
2023/06/02 11:32:45;;;;;;;3.00;1.80;;;32.70;33.90;;;;;;5001730;28;20456;-81
2023/06/02 11:35:13;;;;;;;3.10;2.20;;;32.50;34.10;;;;;;5004206;28;20552;-80
2023/06/02 11:37:42;;;;;;;2.43;2.10;;;32.40;34.20;;;;;;4997369;28;20438;-82
2023/06/02 11:40:11;;;;;;;1.90;1.80;;;32.40;34.30;;;;;;5000578;28;20452;-82
2023/06/02 11:42:40;;;;;;;2.30;2.10;;;32.30;34.40;;;;;;5005470;28;20449;-82
2023/06/02 11:45:20;;;;;;;2.23;1.67;;;32.80;34.00;;;;;;4996850;28;20481;-84
2023/06/02 11:47:49;;;;;;;5.50;2.07;;;32.70;33.90;;;;;;4991549;28;20473;-84
2023/06/02 11:50:17;;;;;;;1.93;1.80;;;32.60;34.00;;;;;;4987153;28;20477;-86
2023/06/02 11:52:46;;;;;;;2.17;1.97;;;32.30;34.20;;;;;;4993656;28;20468;-84
2023/06/02 11:55:15;;;;;;;2.27;2.17;;;32.20;34.40;;;;;;4997019;28;20468;-84
2023/06/02 11:57:43;;;;;;;2.30;2.10;;;32.10;34.50;;;;;;4998521;28;20476;-83
2023/06/02 12:00:16;;;;;;;2.43;2.20;;;32.00;34.70;;;;;;5001260;28;20449;-84
2023/06/02 12:02:52;;;;;;;6.20;2.43;;;32.00;34.90;;;;;;5000316;28;20449;-84
2023/06/02 12:05:30;;;;;;;2.10;1.77;;;32.30;34.90;;;;;;4996511;28;20473;-83
2023/06/02 12:08:14;;;;;;;1.63;1.53;;;33.50;34.10;;;;;;4997728;28;20481;-82
2023/06/02 12:10:43;;;;;;;1.93;1.73;;;35.50;32.20;;;;;;5002051;28;20457;-81
2023/06/02 12:13:11;;;;;;;1.80;1.70;;;36.70;30.60;;;;;;4995065;28;20476;-83
2023/06/02 12:15:39;;;;;;;2.87;1.90;;;37.00;29.90;;;;;;4989116;28;20485;-82
2023/06/02 12:18:09;;;;;;;1.93;1.83;;;36.30;29.80;;;;;;4997821;28;20461;-83
2023/06/02 12:20:38;;;;;;;2.03;1.70;;;35.70;30.20;;;;;;4996337;28;20512;-81
2023/06/02 12:23:07;;;;;;;2.60;1.77;;;35.00;30.90;;;;;;4996709;28;20500;-83
2023/06/02 12:25:36;;;;;;;2.60;2.00;;;34.30;31.50;;;;;;4996286;28;20480;-82
2023/06/02 12:28:08;;;;;;;2.20;2.10;;;33.80;32.40;;;;;;4991864;28;21046;-83
2023/06/02 12:30:36;;;;;;;2.30;2.10;;;33.30;33.00;;;;;;5001943;28;20457;-84
2023/06/02 12:33:09;;;;;;;2.20;1.60;;;32.90;33.60;;;;;;4994025;28;20481;-83
2023/06/02 12:35:38;;;;;;;2.10;2.00;;;32.80;34.00;;;;;;4998618;28;20481;-83
2023/06/02 12:38:08;;;;;;;2.30;2.10;;;32.70;34.20;;;;;;4995928;28;20461;-84
2023/06/02 12:40:39;;;;;;;2.30;2.10;;;32.70;34.30;;;;;;4992228;28;20473;-84
2023/06/02 12:43:07;;;;;;;2.47;2.27;;;32.70;34.40;;;;;;4994653;28;21046;-82
2023/06/02 12:45:35;;;;;;;2.37;2.17;;;32.70;34.30;;;;;;4997662;28;20528;-82
2023/06/02 12:48:04;;;;;;;2.10;2.00;;;32.60;34.30;;;;;;4992573;28;20485;-82
2023/06/02 12:50:33;;;;;;;2.27;2.07;;;32.70;34.60;;;;;;4999092;28;20457;-81
2023/06/02 12:53:01;;;;;;;2.10;2.00;;;32.80;35.10;;;;;;5001133;28;20754;-82